Southill, Virginia
Current Conditions -  °F | °C
As of 5:36 AM on Thursday 27 Nov 2014 (Local Time) from KAVC Reporting Station
Overcast Overcast  
Wind Chill: 38°   Ceiling: 5500
Heat Index: 38°   Visibility: 7mi
Dew Point: 37°   Wind: 3mph
Humidity: 98%   Direction: 190°S
Pressure: 30.07"   Gusts: NA
Location:  36.743°N, 78.1806°W
Report Text: KAVC 271036Z AUTO 19003KT 7SM SCT029 OVC055 03/03 A3007 RMK AO2 P0001 T00330030
Loading
Personal Weather Stations






























Interactive Weather Map New forecast layout! Learn more

10-Day Weather Forecast

Advertisements
Track Severe Weather on mobile